KSAT/SAT METAR and TAF weather

Enter ICAO airport designator
Station Type Date Time Source
KSAT METAR 2020/03/31 09:51 UTC NOAA

KSAT 310951Z 33004KT 10SM FEW250 15/13 A2993 RMK AO2 SLP120 T01500133


Station Type Date Time Source
KSAT Decoded METAR 2020/03/31 09:51 UTC NOAA

SAN ANTONIO INTERNATIONAL AIRPORT , TX, United States (KSAT) 29-32N 098-28W 243M
Mar 31, 2020 - 05:51 AM EDT / 2020.03.31 0951 UTC
Wind: from the NNW (330 degrees) at 5 MPH (4 KT):0
Visibility: 10 mile(s):0
Sky conditions: mostly clear
Temperature: 59.0 F (15.0 C)
Dew Point: 55.9 F (13.3 C)
Relative Humidity: 89%
Pressure (altimeter): 29.93 in. Hg (1013 hPa)
ob: KSAT 310951Z 33004KT 10SM FEW250 15/13 A2993 RMK AO2 SLP120 T01500133
cycle: 10

Station Type Date Time Source
KSAT TAF 2020/03/31 06:28 UTC NOAA

TAF KSAT 310525Z 3106/0112 28005KT P6SM FEW025 SCT180
FM311100 31006KT P6SM SKC
FM311400 34008KT P6SM SKC
FM312000 01010KT P6SM FEW250

Example: see airport list